Impacts TAF Board INFO
FOR SITUATIONAL AWARENESS. NOT TO BE USED FOR FLIGHT PLANNING PURPOSES.
IDs:

KBOS - Boston/Logan Intl, MA, US

Issued at 2327 UTC 21 Apr 2018
Updated at 0256 UTC 22 Apr 2018
Potential Impact None Slight Moderate High
Time0154Z 22/03Z 22/04Z 22/05Z 22/06Z 22/07Z 22/08Z 22/09Z 22/10Z 22/11Z 22/12Z 22/13Z 22/14Z 22/15Z>>
Type OBS PRVL PRVL PRVL PRVL PRVL PRVL PRVL PRVL PRVL PRVL PRVL PRVL PRVL
VIS 10 >6 >6 >6 >6 >6 >6 >6 >6 >6 >6 >6 >6 >6
CIG -- -- -- -- -- -- -- -- -- -- -- -- -- --
Cover CLR FEW FEW FEW FEW FEW FEW FEW FEW FEW FEW FEW FEW FEW
FltCat VFR VFR VFR VFR VFR VFR VFR VFR VFR VFR VFR VFR VFR VFR
WX -- -- -- -- -- -- -- -- -- -- -- -- -- --
WDir 360 320 320 320 320 320 320 320 320 320 320 320 320 320
WSpd 5 7 7 7 7 7 7 7 7 7 7 7 7 7
WGst -- -- -- -- -- -- -- -- -- -- -- -- -- --

Raw TAF
KBOS 212327Z 2200/2306 33014KT P6SM FEW090
  FM220100 32007KT P6SM FEW250
  FM221700 35007KT P6SM SKC
  FM221800 05007KT P6SM SKC
  FM222300 09004KT P6SM SKC
  FM230100 06004KT P6SM SKC


Raw METAR
KBOS 220154Z 36005KT 10SM CLR 11/M04 A3028 RMK AO2 SLP253 T01061044
KBOS 220054Z 36006KT 10SM CLR 11/M05 A3026 RMK AO2 SLP246 T01111050
KBOS 212354Z 35010KT 10SM FEW085 FEW200 13/M08 A3023 RMK AO2 SLP235 T01331078 10150 20133 53013

METAR Board
Radar Display
Forecast Discussion

FOR SITUATIONAL AWARENESS. NOT TO BE USED FOR FLIGHT PLANNING PURPOSES.